createdAt,value
2023-01-09T08:47:02.371Z,38.07
2023-01-09T08:48:02.848Z,40.67
2023-01-09T08:49:02.847Z,72.19
2023-01-09T08:50:03.351Z,69.38
2023-01-09T08:51:02.819Z,44.12
2023-01-09T08:52:02.846Z,40.52
2023-01-09T08:53:02.805Z,38.72
2023-01-09T08:54:02.801Z,40.18
2023-01-09T08:55:02.786Z,40.51
2023-01-09T08:56:02.826Z,40.34
2023-01-09T08:57:02.770Z,39.50
2023-01-09T08:58:02.763Z,39.36
2023-01-09T08:59:02.758Z,38.82
2023-01-09T09:00:02.736Z,38.32
2023-01-09T09:01:02.825Z,37.90
2023-01-09T09:02:02.732Z,37.59
2023-01-09T09:03:02.781Z,37.65
2023-01-09T09:04:02.698Z,37.46
2023-01-09T09:05:02.696Z,37.38
2023-01-09T09:06:03.323Z,37.22
2023-01-09T09:07:02.680Z,37.31
2023-01-09T09:08:02.686Z,37.23
2023-01-09T09:09:02.657Z,37.24
2023-01-09T09:10:02.647Z,37.24
2023-01-09T09:11:03.418Z,37.21
2023-01-09T09:12:02.625Z,37.22
2023-01-09T09:13:02.628Z,37.33
2023-01-09T09:14:02.836Z,37.31
2023-01-09T09:15:02.613Z,37.36
2023-01-09T09:16:02.848Z,37.35
2023-01-09T09:17:02.591Z,37.43
2023-01-09T09:18:02.682Z,37.35
2023-01-09T09:19:02.600Z,37.31
2023-01-09T09:20:02.559Z,37.31
2023-01-09T09:21:02.833Z,37.34
2023-01-09T09:22:02.540Z,37.39
2023-01-09T09:23:02.558Z,37.29
2023-01-09T09:24:02.522Z,37.26
2023-01-09T09:25:02.531Z,37.23
2023-01-09T09:26:02.839Z,37.23
2023-01-09T09:27:02.503Z,37.27
2023-01-09T09:28:02.522Z,37.33
2023-01-09T09:29:02.492Z,37.33
2023-01-09T09:30:02.483Z,37.33
2023-01-09T09:31:02.539Z,37.23
2023-01-09T09:32:02.452Z,37.19
2023-01-09T09:33:02.519Z,37.22
2023-01-09T09:34:02.846Z,37.26
2023-01-09T09:35:02.461Z,37.30
2023-01-09T09:36:02.831Z,37.38
2023-01-09T09:37:02.517Z,37.31
2023-01-09T09:38:05.009Z,37.30
2023-01-09T09:39:02.396Z,37.32
2023-01-09T09:40:13.222Z,37.46
2023-01-09T09:41:02.381Z,37.62
2023-01-09T09:42:02.393Z,37.95
2023-01-09T09:43:02.391Z,37.54
2023-01-09T09:44:02.343Z,37.25
2023-01-09T09:45:02.385Z,37.20
2023-01-09T09:46:02.389Z,36.82
2023-01-09T09:47:02.314Z,36.82
2023-01-09T09:48:02.310Z,36.58
2023-01-09T09:49:02.315Z,36.60
2023-01-09T09:50:02.301Z,36.64
2023-01-09T09:51:02.519Z,36.56
2023-01-09T09:52:02.305Z,36.47
2023-01-09T09:53:02.273Z,36.36
2023-01-09T09:54:02.376Z,36.28
2023-01-09T09:55:02.274Z,36.39
2023-01-09T09:56:02.245Z,36.31
2023-01-09T09:57:02.271Z,36.30
2023-01-09T09:58:02.244Z,36.12
2023-01-09T09:59:02.266Z,35.92
2023-01-09T10:00:02.207Z,36.06
2023-01-09T10:01:02.220Z,35.83
2023-01-09T10:02:02.267Z,35.77
2023-01-09T10:03:02.233Z,35.76
2023-01-09T10:04:02.236Z,35.83
2023-01-09T10:05:02.357Z,35.84
2023-01-09T10:06:02.160Z,35.89
2023-01-09T10:07:02.369Z,36.04
2023-01-09T10:08:14.918Z,36.10
2023-01-09T10:09:02.143Z,36.09
2023-01-09T10:10:02.113Z,36.08
2023-01-09T10:11:02.381Z,36.05
2023-01-09T10:12:02.133Z,36.13
2023-01-09T10:13:02.118Z,36.16
2023-01-09T10:14:04.218Z,36.16
2023-01-09T10:15:02.072Z,36.17
2023-01-09T10:16:04.202Z,36.24
2023-01-09T10:17:02.116Z,36.28
2023-01-09T10:18:02.051Z,36.26
2023-01-09T10:19:02.063Z,36.28
2023-01-09T10:20:02.035Z,36.28
2023-01-09T10:21:03.015Z,36.30
2023-01-09T10:22:02.342Z,36.34
2023-01-09T10:23:02.028Z,36.35
2023-01-09T10:24:02.003Z,36.38
2023-01-09T10:25:02.019Z,36.42
2023-01-09T10:26:01.981Z,36.49
2023-01-09T10:27:02.378Z,36.50
2023-01-09T10:28:01.980Z,36.50
2023-01-09T10:29:01.953Z,36.62
2023-01-09T10:30:01.941Z,36.69
2023-01-09T10:31:01.986Z,36.63
2023-01-09T10:32:02.377Z,36.62
2023-01-09T10:33:01.946Z,36.66
2023-01-09T10:34:01.910Z,36.65
2023-01-09T10:35:01.916Z,36.69
2023-01-09T10:36:01.904Z,36.74
2023-01-09T10:37:02.433Z,36.78
2023-01-09T10:38:01.886Z,36.84
2023-01-09T10:39:09.306Z,36.81
2023-01-09T10:40:05.083Z,36.96
2023-01-09T10:41:02.088Z,37.09
2023-01-09T10:42:01.857Z,36.79
2023-01-09T10:43:33.618Z,36.84
2023-01-09T10:44:01.815Z,36.98
2023-01-09T10:45:01.885Z,36.97
2023-01-09T10:46:01.803Z,37.12
2023-01-09T10:47:01.901Z,36.93
2023-01-09T10:48:01.782Z,36.91
2023-01-09T10:49:01.790Z,36.82
2023-01-09T10:50:01.772Z,36.77
2023-01-09T10:51:01.861Z,36.80
2023-01-09T10:52:01.811Z,36.78
2023-01-09T10:53:01.737Z,36.77
2023-01-09T10:54:01.735Z,36.74
2023-01-09T10:55:01.888Z,36.72
2023-01-09T10:56:01.708Z,36.65
2023-01-09T10:57:01.724Z,36.71
2023-01-09T10:58:01.687Z,36.67
2023-01-09T10:59:01.693Z,36.66
2023-01-09T11:00:01.874Z,36.69
2023-01-09T11:01:01.670Z,36.64
2023-01-09T11:02:01.754Z,36.63
2023-01-09T11:03:01.956Z,36.60
2023-01-09T11:04:01.701Z,36.52
2023-01-09T11:05:01.625Z,36.53
2023-01-09T11:06:01.632Z,36.55
2023-01-09T11:07:01.615Z,36.60
2023-01-09T11:08:01.874Z,36.52
2023-01-09T11:09:01.598Z,36.51
2023-01-09T11:10:01.617Z,36.56
2023-01-09T11:11:01.616Z,36.55
2023-01-09T11:12:01.572Z,36.61
2023-01-09T11:13:01.870Z,36.58
2023-01-09T11:14:01.553Z,36.58
2023-01-09T11:15:01.541Z,36.61
2023-01-09T11:16:01.607Z,36.64
2023-01-09T11:17:01.558Z,36.66
2023-01-09T11:18:01.869Z,36.66
2023-01-09T11:19:01.532Z,36.70
2023-01-09T11:20:01.493Z,36.65
2023-01-09T11:21:01.500Z,36.61
2023-01-09T11:22:01.868Z,36.69
2023-01-09T11:23:01.479Z,36.76
2023-01-09T11:24:01.869Z,36.78
2023-01-09T11:25:01.455Z,36.72
2023-01-09T11:26:01.477Z,36.96
2023-01-09T11:27:01.481Z,37.20
2023-01-09T11:28:01.425Z,37.06
2023-01-09T11:29:01.868Z,37.02
2023-01-09T11:30:01.450Z,37.14
2023-01-09T11:31:01.615Z,37.05
2023-01-09T11:32:01.401Z,37.09
2023-01-09T11:33:01.406Z,37.11
2023-01-09T11:34:01.882Z,37.19
2023-01-09T11:35:01.387Z,37.13
2023-01-09T11:36:01.388Z,37.17
2023-01-09T11:37:01.565Z,37.15
2023-01-09T11:38:01.407Z,37.11
2023-01-09T11:39:01.362Z,37.14
2023-01-09T11:40:01.369Z,37.12
2023-01-09T11:41:01.351Z,37.12
2023-01-09T11:42:01.508Z,37.08
2023-01-09T11:43:01.364Z,37.04
2023-01-09T11:44:01.290Z,37.00
2023-01-09T11:45:01.303Z,37.02
2023-01-09T11:46:02.127Z,37.10
2023-01-09T11:47:01.288Z,37.14
2023-01-09T11:48:01.392Z,37.16
2023-01-09T11:49:01.283Z,37.17
2023-01-09T11:50:01.395Z,37.14
2023-01-09T11:51:01.231Z,37.22
2023-01-09T11:52:02.236Z,37.19
2023-01-09T11:53:01.937Z,37.20
2023-01-09T11:54:01.211Z,37.21
2023-01-09T11:55:01.231Z,37.17
2023-01-09T11:56:01.253Z,37.15
2023-01-09T11:57:01.199Z,37.05
2023-01-09T11:58:01.250Z,37.05
2023-01-09T11:59:01.411Z,37.06
2023-01-09T12:00:01.153Z,37.02
2023-01-09T12:01:01.142Z,37.01
2023-01-09T12:02:01.601Z,37.04
2023-01-09T12:03:02.059Z,37.02
2023-01-09T12:04:01.121Z,37.04
2023-01-09T12:05:01.110Z,37.04
2023-01-09T12:06:01.127Z,36.98
2023-01-09T12:07:01.406Z,37.02
2023-01-09T12:08:01.094Z,37.01
2023-01-09T12:09:01.679Z,36.99
2023-01-09T12:10:01.159Z,37.02
2023-01-09T12:11:01.391Z,37.05
2023-01-09T12:12:01.064Z,37.08
2023-01-09T12:13:01.054Z,37.16
2023-01-09T12:14:01.396Z,37.06
2023-01-09T12:15:01.056Z,37.11
2023-01-09T12:16:01.048Z,37.09
2023-01-09T12:17:01.011Z,36.99
2023-01-09T12:18:01.008Z,36.41
2023-01-09T12:19:01.901Z,36.07
2023-01-09T12:20:00.996Z,35.58
2023-01-09T12:21:00.975Z,34.17
2023-01-09T12:22:01.023Z,33.89
2023-01-09T12:23:00.955Z,34.11
2023-01-09T12:24:01.389Z,33.73
2023-01-09T12:25:00.946Z,33.14
2023-01-09T12:26:00.952Z,44.86
2023-01-09T12:27:00.926Z,38.30
2023-01-09T12:28:01.908Z,34.62
2023-01-09T12:29:01.396Z,34.18
2023-01-09T12:30:01.390Z,34.50
2023-01-09T12:31:01.027Z,34.54
2023-01-09T12:32:00.950Z,34.67
2023-01-09T12:33:00.866Z,34.60
2023-01-09T12:34:00.901Z,34.66
2023-01-09T12:35:00.863Z,34.60
2023-01-09T12:36:00.847Z,34.43
2023-01-09T12:37:01.007Z,34.64
2023-01-09T12:38:00.834Z,34.66
2023-01-09T12:39:00.922Z,34.59
2023-01-09T12:40:00.868Z,34.48
2023-01-09T12:41:00.802Z,34.14
2023-01-09T12:42:00.794Z,34.10
2023-01-09T12:43:00.786Z,34.27
2023-01-09T12:44:01.002Z,34.32
2023-01-09T12:45:00.797Z,34.46
2023-01-09T12:46:01.451Z,34.81
2023-01-09T12:47:00.794Z,35.27
2023-01-09T12:48:00.751Z,34.91
2023-01-09T12:49:00.806Z,34.92
2023-01-09T12:50:00.930Z,34.98
2023-01-09T12:51:00.717Z,35.01
2023-01-09T12:52:00.709Z,34.97
2023-01-09T12:53:00.704Z,35.14
2023-01-09T12:54:00.706Z,35.19
2023-01-09T12:55:01.306Z,35.25
2023-01-09T12:56:00.701Z,35.27
2023-01-09T12:57:00.677Z,35.35
2023-01-09T12:58:00.676Z,35.47
2023-01-09T12:59:00.668Z,35.52
2023-01-09T13:00:00.907Z,35.51
2023-01-09T13:01:00.672Z,35.64
2023-01-09T13:02:00.677Z,35.81
2023-01-09T13:03:12.016Z,35.86
2023-01-09T13:04:00.623Z,35.92
2023-01-09T13:05:00.940Z,35.95
2023-01-09T13:06:00.582Z,36.04
2023-01-09T13:07:00.613Z,35.96
2023-01-09T13:08:00.575Z,36.03
2023-01-09T13:09:00.565Z,35.96
2023-01-09T13:10:00.914Z,35.87
2023-01-09T13:11:05.595Z,35.83
2023-01-09T13:12:00.542Z,35.69
2023-01-09T13:13:00.521Z,35.50
2023-01-09T13:14:00.765Z,35.47
2023-01-09T13:15:00.503Z,35.56
2023-01-09T13:16:00.660Z,35.71
2023-01-09T13:17:00.912Z,35.82
2023-01-09T13:18:00.486Z,35.89
2023-01-09T13:19:00.508Z,35.88
2023-01-09T13:20:00.478Z,35.98
2023-01-09T13:21:00.462Z,35.88
2023-01-09T13:22:00.922Z,35.81
2023-01-09T13:23:00.438Z,35.92
2023-01-09T13:24:00.432Z,35.92
2023-01-09T13:25:00.949Z,35.95
2023-01-09T13:26:00.454Z,36.08
2023-01-09T13:27:00.414Z,36.06
2023-01-09T13:28:00.425Z,36.16
2023-01-09T13:29:00.396Z,36.23
2023-01-09T13:30:00.383Z,36.24
2023-01-09T13:31:00.376Z,36.17
2023-01-09T13:32:00.480Z,36.28
2023-01-09T13:33:00.423Z,36.28
2023-01-09T13:34:00.557Z,36.27
2023-01-09T13:35:00.500Z,36.28
2023-01-09T13:36:00.346Z,36.35
2023-01-09T13:37:00.406Z,36.30
2023-01-09T13:38:00.325Z,36.12
2023-01-09T13:39:00.311Z,36.18
2023-01-09T13:40:00.477Z,36.22
2023-01-09T13:41:00.283Z,36.29
2023-01-09T13:42:00.275Z,36.29
2023-01-09T13:43:00.269Z,36.32
2023-01-09T13:44:00.275Z,36.27
2023-01-09T13:45:00.452Z,36.34
2023-01-09T13:46:00.372Z,36.24
2023-01-09T13:47:00.234Z,36.19
2023-01-09T13:48:00.226Z,36.15
2023-01-09T13:49:00.434Z,36.20
2023-01-09T13:50:00.226Z,36.19
2023-01-09T13:51:00.251Z,36.17
2023-01-09T13:52:00.193Z,36.20
2023-01-09T13:53:00.186Z,36.19
2023-01-09T13:54:00.512Z,36.14
2023-01-09T13:55:00.302Z,36.13
2023-01-09T13:56:00.149Z,36.09
2023-01-09T13:57:00.187Z,36.10
2023-01-09T13:58:00.136Z,36.08
2023-01-09T13:59:00.866Z,36.16
2023-01-09T14:00:00.158Z,36.23
2023-01-09T14:01:00.479Z,36.20
2023-01-09T14:02:00.172Z,36.07
2023-01-09T14:03:00.115Z,35.76
2023-01-09T14:04:00.159Z,35.81
2023-01-09T14:05:00.935Z,35.77
2023-01-09T14:06:00.114Z,35.79
2023-01-09T14:07:00.147Z,35.63
2023-01-09T14:08:00.067Z,35.47
2023-01-09T14:09:00.055Z,35.46
2023-01-09T14:10:00.446Z,35.39
2023-01-09T14:11:00.443Z,35.25
2023-01-09T14:12:00.022Z,35.28
2023-01-09T14:13:00.015Z,35.09
2023-01-09T14:14:00.043Z,35.23
2023-01-09T14:14:59.994Z,35.30
2023-01-09T14:16:00.433Z,35.37
2023-01-09T14:16:59.976Z,35.40
2023-01-09T14:17:59.957Z,35.47
2023-01-09T14:18:59.956Z,35.47
2023-01-09T14:20:00.432Z,35.49
2023-01-09T14:21:00.431Z,35.55
2023-01-09T14:21:59.953Z,35.65
2023-01-09T14:23:18.117Z,35.71
2023-01-09T14:24:03.470Z,35.78
2023-01-09T14:24:59.909Z,35.83
2023-01-09T14:25:59.937Z,35.83
2023-01-09T14:26:59.899Z,35.84
2023-01-09T14:27:59.894Z,35.88
2023-01-09T14:28:59.871Z,35.91
2023-01-09T14:29:59.869Z,35.92
2023-01-09T14:30:59.873Z,35.94
2023-01-09T14:31:59.883Z,35.92
2023-01-09T14:32:59.946Z,35.91
2023-01-09T14:34:16.991Z,35.92
2023-01-09T14:34:59.836Z,36.02
2023-01-09T14:35:59.823Z,36.00
2023-01-09T14:36:59.878Z,36.05
2023-01-09T14:37:59.944Z,35.96
2023-01-09T14:38:59.811Z,36.08
2023-01-09T14:39:59.811Z,36.07
2023-01-09T14:40:59.938Z,35.95
2023-01-09T14:41:59.765Z,36.02
2023-01-09T14:42:59.753Z,36.05
2023-01-09T14:43:59.752Z,36.12
2023-01-09T14:44:59.754Z,36.11
2023-01-09T14:45:59.994Z,36.09
2023-01-09T14:46:59.723Z,36.02
2023-01-09T14:47:59.713Z,36.03
2023-01-09T14:48:59.710Z,36.06
2023-01-09T14:49:59.707Z,36.09
2023-01-09T14:51:00.130Z,36.17
2023-01-09T14:51:59.683Z,36.20
2023-01-09T14:52:59.673Z,36.16
2023-01-09T14:53:59.663Z,36.02
2023-01-09T14:54:59.674Z,35.95
2023-01-09T14:55:59.699Z,35.99
2023-01-09T14:56:59.939Z,35.97
2023-01-09T14:57:59.634Z,36.00
2023-01-09T14:58:59.623Z,36.01
2023-01-09T14:59:59.608Z,36.00
2023-01-09T15:00:59.644Z,36.01
2023-01-09T15:01:59.657Z,36.04
2023-01-09T15:02:59.585Z,35.92
2023-01-09T15:03:59.577Z,35.90
2023-01-09T15:04:59.581Z,35.88
2023-01-09T15:05:59.563Z,35.92
2023-01-09T15:06:59.574Z,35.93
2023-01-09T15:07:59.549Z,35.99
2023-01-09T15:08:59.530Z,36.01
2023-01-09T15:09:59.525Z,36.00
2023-01-09T15:10:59.602Z,35.98
2023-01-09T15:11:59.949Z,35.97
2023-01-09T15:12:59.511Z,35.95
2023-01-09T15:13:59.495Z,35.95
2023-01-09T15:14:59.486Z,36.05
2023-01-09T15:15:59.478Z,36.02
2023-01-09T15:16:59.471Z,36.01
2023-01-09T15:17:59.461Z,35.97
2023-01-09T15:18:59.453Z,35.91
2023-01-09T15:19:59.450Z,35.83
2023-01-09T15:20:59.446Z,35.92
2023-01-09T15:21:59.435Z,35.94
2023-01-09T15:22:59.419Z,35.96
2023-01-09T15:23:59.418Z,35.98
2023-01-09T15:24:59.400Z,35.96
2023-01-09T15:25:59.401Z,35.84
2023-01-09T15:26:59.639Z,35.83
2023-01-09T15:27:59.382Z,35.86
2023-01-09T15:28:59.370Z,35.94
2023-01-09T15:29:59.361Z,36.11
2023-01-09T15:30:59.358Z,35.93
2023-01-09T15:31:59.471Z,35.82
2023-01-09T15:32:59.336Z,35.56
2023-01-09T15:33:59.323Z,35.31
2023-01-09T15:34:59.326Z,35.05
2023-01-09T15:35:59.464Z,34.86
2023-01-09T15:36:59.322Z,34.73
2023-01-09T15:37:59.287Z,34.59
2023-01-09T15:38:59.311Z,34.45
2023-01-09T15:39:59.279Z,34.41
2023-01-09T15:40:59.263Z,34.45
2023-01-09T15:41:59.257Z,34.38
2023-01-09T15:42:59.761Z,34.01
2023-01-09T15:43:59.237Z,34.14
2023-01-09T15:44:59.227Z,34.16
2023-01-09T15:45:59.295Z,34.19
2023-01-09T15:46:59.212Z,34.19
2023-01-09T15:47:59.205Z,34.19
2023-01-09T15:48:59.197Z,34.14
2023-01-09T15:49:59.867Z,34.14
2023-01-09T15:50:59.174Z,34.15
2023-01-09T15:51:59.161Z,34.41
2023-01-09T15:52:59.456Z,34.36
2023-01-09T15:53:59.148Z,34.37
2023-01-09T15:54:59.141Z,34.46
2023-01-09T15:55:59.463Z,34.51
2023-01-09T15:56:59.138Z,34.53
2023-01-09T15:57:59.112Z,34.51
2023-01-09T15:58:59.129Z,34.58
2023-01-09T15:59:59.093Z,34.61
2023-01-09T16:00:59.500Z,34.73
2023-01-09T16:01:59.087Z,34.97
2023-01-09T16:02:59.076Z,35.15
2023-01-09T16:03:59.069Z,35.33
2023-01-09T16:04:59.467Z,35.52
2023-01-09T16:05:59.042Z,35.74
2023-01-09T16:06:59.039Z,35.97
2023-01-09T16:07:59.022Z,36.19
2023-01-09T16:08:59.142Z,36.48
2023-01-09T16:09:59.015Z,36.67
2023-01-09T16:10:58.997Z,36.80
2023-01-09T16:11:58.996Z,36.86
2023-01-09T16:12:58.977Z,36.84
2023-01-09T16:13:58.985Z,36.85
2023-01-09T16:14:58.991Z,36.81
2023-01-09T16:15:58.960Z,36.82
2023-01-09T16:16:58.950Z,36.83
2023-01-09T16:17:58.952Z,36.83
2023-01-09T16:18:58.941Z,36.80
2023-01-09T16:19:58.922Z,36.85
2023-01-09T16:20:58.915Z,36.82
2023-01-09T16:21:58.912Z,36.77
2023-01-09T16:23:01.209Z,36.83
2023-01-09T16:23:59.965Z,36.81
2023-01-09T16:24:58.883Z,36.76
2023-01-09T16:25:58.881Z,36.68
2023-01-09T16:26:58.859Z,36.66
2023-01-09T16:27:58.973Z,36.64
2023-01-09T16:28:58.972Z,36.63
2023-01-09T16:29:59.092Z,36.61
2023-01-09T16:30:58.843Z,36.59
2023-01-09T16:31:58.844Z,36.67
2023-01-09T16:32:58.803Z,36.61
2023-01-09T16:33:58.796Z,36.64
2023-01-09T16:34:58.817Z,36.58
2023-01-09T16:35:58.772Z,36.60
2023-01-09T16:36:58.858Z,36.63
2023-01-09T16:37:58.758Z,36.65
2023-01-09T16:38:58.750Z,36.71
2023-01-09T16:39:58.747Z,36.70
2023-01-09T16:40:58.729Z,36.70
2023-01-09T16:41:58.720Z,36.70
2023-01-09T16:42:58.715Z,36.73
2023-01-09T16:43:58.704Z,36.69
2023-01-09T16:44:58.690Z,36.71
2023-01-09T16:45:58.761Z,36.74
2023-01-09T16:46:58.709Z,36.72
2023-01-09T16:47:58.671Z,36.71
2023-01-09T16:48:58.701Z,36.69
2023-01-09T16:49:58.649Z,36.67
2023-01-09T16:50:58.640Z,36.67
2023-01-09T16:51:58.632Z,36.69
2023-01-09T16:52:58.629Z,36.70
2023-01-09T16:53:58.615Z,36.71
2023-01-09T16:54:58.604Z,36.68
2023-01-09T16:55:58.606Z,36.63
2023-01-09T16:56:58.588Z,36.64
2023-01-09T16:57:58.580Z,36.64
2023-01-09T16:58:58.573Z,36.62
2023-01-09T16:59:58.560Z,36.63
2023-01-09T17:00:58.631Z,36.61
2023-01-09T17:01:58.612Z,36.64
2023-01-09T17:02:58.564Z,36.58
2023-01-09T17:03:58.525Z,36.60
2023-01-09T17:04:58.512Z,36.59
2023-01-09T17:05:58.519Z,36.56
2023-01-09T17:06:58.504Z,36.50
2023-01-09T17:07:58.492Z,36.41
2023-01-09T17:08:58.489Z,36.39
2023-01-09T17:09:58.468Z,36.34
2023-01-09T17:10:58.460Z,36.38
2023-01-09T17:11:58.460Z,36.36
2023-01-09T17:12:58.445Z,36.31
2023-01-09T17:13:58.442Z,36.28
2023-01-09T17:14:58.427Z,36.25
2023-01-09T17:15:58.425Z,36.26
2023-01-09T17:34:58.283Z,36.29
2023-01-09T17:35:58.235Z,36.25
2023-01-09T17:36:58.327Z,36.27
2023-01-09T17:37:58.219Z,36.29
2023-01-09T17:38:58.493Z,36.29
2023-01-09T17:39:58.218Z,36.30
2023-01-09T17:40:58.196Z,36.31
2023-01-09T17:41:58.191Z,36.27
2023-01-09T17:42:58.173Z,36.27
2023-01-09T17:43:58.172Z,36.27
2023-01-09T17:44:58.158Z,36.26
2023-01-09T17:45:58.199Z,36.27
2023-01-09T17:46:58.143Z,36.27
2023-01-09T17:47:58.131Z,36.27
2023-01-09T17:48:58.133Z,36.26
2023-01-09T17:49:58.111Z,36.27
2023-01-09T17:50:58.132Z,36.21
2023-01-09T17:51:58.088Z,36.24
2023-01-09T17:52:58.093Z,36.22
2023-01-09T17:53:58.096Z,36.22
2023-01-09T17:54:58.069Z,36.19
2023-01-09T17:55:58.071Z,36.16
2023-01-09T17:56:58.050Z,36.16
2023-01-09T17:57:58.047Z,36.17
2023-01-09T17:58:58.032Z,36.19
2023-01-09T17:59:58.027Z,36.16
2023-01-09T18:00:58.074Z,36.18
2023-01-09T18:01:58.121Z,36.16
2023-01-09T18:02:58.009Z,36.17
2023-01-09T18:03:57.992Z,36.12
2023-01-09T18:04:57.977Z,36.12
2023-01-09T18:05:57.971Z,36.15
2023-01-09T18:06:57.992Z,36.09
2023-01-09T18:07:57.958Z,36.12
2023-01-09T18:08:58.413Z,36.13
2023-01-09T18:09:57.936Z,36.07
2023-01-09T18:10:57.928Z,36.05
2023-01-09T18:11:57.920Z,36.04
2023-01-09T18:12:57.910Z,36.04
2023-01-09T18:13:57.898Z,36.02
2023-01-09T18:14:57.891Z,36.04
2023-01-09T18:15:57.895Z,36.03
2023-01-09T18:16:58.009Z,36.00
2023-01-09T18:17:57.892Z,35.99
2023-01-09T18:18:58.079Z,35.97
2023-01-09T18:19:57.846Z,35.99
2023-01-09T18:20:57.853Z,35.98
2023-01-09T18:21:57.828Z,35.97
2023-01-09T18:22:57.845Z,35.93
2023-01-09T18:23:57.826Z,35.91
2023-01-09T18:24:57.802Z,35.93
2023-01-09T18:25:57.791Z,35.90
2023-01-09T18:26:57.787Z,35.92
2023-01-09T18:27:57.777Z,35.86
2023-01-09T18:28:57.764Z,35.84
2023-01-09T18:29:57.765Z,35.84
2023-01-09T18:30:57.758Z,35.83
2023-01-09T18:31:57.774Z,35.81
2023-01-09T18:32:57.731Z,35.82
2023-01-09T18:33:57.735Z,35.80
2023-01-09T18:34:57.712Z,35.81
2023-01-09T18:35:57.706Z,35.79
2023-01-09T18:36:57.780Z,35.78
2023-01-09T18:37:57.685Z,35.77
2023-01-09T18:38:57.702Z,35.81
2023-01-09T18:39:57.726Z,35.77
2023-01-09T18:40:57.658Z,35.76
2023-01-09T18:41:57.645Z,35.74
2023-01-09T18:42:57.640Z,35.72
2023-01-09T18:43:57.663Z,35.71
2023-01-09T18:44:57.630Z,35.72
2023-01-09T19:54:57.004Z,35.11
2023-01-09T20:08:56.876Z,34.99
2023-01-09T20:09:56.880Z,35.02
2023-01-09T20:10:56.858Z,34.97
2023-01-09T20:11:56.859Z,34.96
2023-01-09T20:12:56.845Z,34.98
2023-01-09T20:13:56.857Z,34.97
2023-01-09T20:20:56.780Z,34.95
2023-01-09T22:37:55.559Z,34.04
2023-01-09T22:39:55.568Z,34.02
2023-01-09T22:40:55.541Z,33.99
2023-01-09T22:41:55.530Z,34.02
2023-01-09T22:42:55.531Z,34.00
2023-01-09T22:43:55.512Z,33.98
2023-01-09T22:44:55.502Z,33.99
2023-01-09T22:45:55.555Z,34.00
2023-01-09T22:46:55.483Z,34.01
2023-01-09T22:47:55.494Z,33.97
2023-01-09T22:48:55.465Z,33.99
2023-01-09T22:49:55.461Z,33.98
2023-01-09T22:50:55.456Z,33.96
2023-01-09T22:51:55.461Z,33.93
2023-01-09T22:52:55.434Z,33.95
2023-01-09T22:53:55.416Z,33.92
2023-01-09T22:54:55.440Z,33.93
2023-01-09T22:55:55.411Z,33.97
2023-01-09T22:56:55.396Z,33.95
2023-01-09T22:57:55.402Z,33.95
2023-01-09T22:58:55.374Z,33.94
2023-01-09T22:59:55.369Z,33.97
2023-01-09T23:00:55.359Z,33.92
2023-01-09T23:01:55.456Z,33.92
2023-01-09T23:02:55.402Z,33.92
2023-01-09T23:03:55.339Z,33.92
2023-01-09T23:04:55.333Z,33.91
2023-01-09T23:05:55.317Z,33.92
2023-01-09T23:06:55.313Z,33.93
2023-01-09T23:07:55.296Z,33.93
2023-01-09T23:08:55.303Z,33.90
2023-01-09T23:09:55.283Z,33.92
2023-01-09T23:10:55.297Z,33.91
2023-01-09T23:11:55.267Z,33.89
2023-01-09T23:12:55.268Z,33.88
2023-01-09T23:13:55.246Z,33.88
2023-01-09T23:14:55.240Z,33.90
2023-01-09T23:15:55.224Z,33.88
2023-01-09T23:16:55.286Z,33.87
2023-01-09T23:17:55.217Z,33.85
2023-01-09T23:18:55.209Z,33.86
2023-01-09T23:19:55.193Z,33.85
2023-01-09T23:20:55.182Z,33.85
2023-01-09T23:21:55.184Z,33.85
2023-01-09T23:22:55.436Z,33.84
2023-01-09T23:23:55.159Z,33.83
2023-01-09T23:24:55.176Z,33.84
2023-01-09T23:25:55.156Z,33.83
2023-01-09T23:26:55.157Z,33.84
2023-01-09T23:27:55.124Z,33.82
2023-01-09T23:28:55.117Z,33.84
2023-01-09T23:29:55.105Z,33.82
2023-01-09T23:30:55.112Z,33.81
2023-01-09T23:31:55.176Z,33.81
2023-01-09T23:32:55.090Z,33.79
2023-01-09T23:33:55.071Z,33.76
2023-01-09T23:34:55.068Z,33.77
2023-01-09T23:35:55.062Z,33.72
2023-01-09T23:36:55.099Z,33.74
2023-01-09T23:37:55.047Z,33.76
2023-01-09T23:38:55.028Z,33.73
2023-01-09T23:39:55.113Z,33.71
2023-01-09T23:40:55.015Z,33.75
2023-01-09T23:41:55.012Z,33.73
2023-01-09T23:42:55.017Z,33.73
2023-01-09T23:43:54.983Z,33.68
2023-01-09T23:44:54.995Z,33.73
2023-01-09T23:45:55.012Z,33.72
2023-01-09T23:46:54.966Z,33.74
2023-01-09T23:47:54.986Z,33.67
2023-01-09T23:48:54.938Z,33.67
2023-01-09T23:49:54.935Z,33.68
2023-01-09T23:50:54.934Z,33.67
2023-01-09T23:51:54.915Z,33.67
2023-01-09T23:52:54.903Z,33.66
2023-01-09T23:53:54.956Z,33.70
2023-01-09T23:54:54.893Z,33.68
2023-01-09T23:55:54.895Z,33.65
2023-01-09T23:56:54.871Z,33.65
2023-01-09T23:57:54.879Z,33.63
2023-01-09T23:58:54.908Z,33.63
2023-01-09T23:59:54.847Z,33.64
